sensor_id;sensor_type;location;lat;lon;timestamp;pressure;altitude;pressure_sealevel;temperature;humidity
65054;BME280;51639;47.828;35.038;2023-12-28T00:04:41;100826.53;;;7.39;100.00
65054;BME280;51639;47.828;35.038;2023-12-28T00:19:43;100856.53;;;7.19;100.00
65054;BME280;51639;47.828;35.038;2023-12-28T00:34:45;100859.91;;;6.14;100.00
65054;BME280;51639;47.828;35.038;2023-12-28T00:49:47;100877.88;;;6.03;100.00
65054;BME280;51639;47.828;35.038;2023-12-28T01:04:50;100889.75;;;6.76;100.00
65054;BME280;51639;47.828;35.038;2023-12-28T01:19:52;100906.88;;;6.50;100.00
65054;BME280;51639;47.828;35.038;2023-12-28T01:34:54;100921.09;;;6.47;100.00
65054;BME280;51639;47.828;35.038;2023-12-28T01:49:57;100932.25;;;6.45;100.00
65054;BME280;51639;47.828;35.038;2023-12-28T02:05:01;100927.59;;;6.42;100.00
65054;BME280;51639;47.828;35.038;2023-12-28T02:20:03;100946.38;;;5.45;100.00
65054;BME280;51639;47.828;35.038;2023-12-28T02:35:39;100973.63;;;5.67;100.00
65054;BME280;51639;47.828;35.038;2023-12-28T02:50:41;100974.59;;;5.29;100.00
65054;BME280;51639;47.828;35.038;2023-12-28T03:05:43;100987.81;;;6.20;100.00
65054;BME280;51639;47.828;35.038;2023-12-28T03:20:46;101005.34;;;5.28;100.00
65054;BME280;51639;47.828;35.038;2023-12-28T03:35:48;101011.34;;;5.18;100.00
65054;BME280;51639;47.828;35.038;2023-12-28T03:50:50;101038.06;;;5.07;100.00
65054;BME280;51639;47.828;35.038;2023-12-28T04:05:52;101071.00;;;5.00;100.00
65054;BME280;51639;47.828;35.038;2023-12-28T04:20:54;101078.47;;;4.88;100.00
65054;BME280;51639;47.828;35.038;2023-12-28T04:35:57;101092.41;;;4.55;100.00
65054;BME280;51639;47.828;35.038;2023-12-28T04:51:02;101102.16;;;5.66;100.00
65054;BME280;51639;47.828;35.038;2023-12-28T05:06:04;101109.81;;;4.61;100.00
65054;BME280;51639;47.828;35.038;2023-12-28T05:21:06;101126.25;;;4.94;100.00
65054;BME280;51639;47.828;35.038;2023-12-28T05:36:08;101124.69;;;4.74;100.00
65054;BME280;51639;47.828;35.038;2023-12-28T05:51:12;101132.03;;;4.96;100.00
65054;BME280;51639;47.828;35.038;2023-12-28T06:06:15;101134.50;;;6.15;100.00
65054;BME280;51639;47.828;35.038;2023-12-28T06:21:17;101147.03;;;5.36;100.00
65054;BME280;51639;47.828;35.038;2023-12-28T06:36:19;101157.44;;;5.37;100.00
65054;BME280;51639;47.828;35.038;2023-12-28T06:51:21;101179.03;;;5.60;100.00
65054;BME280;51639;47.828;35.038;2023-12-28T07:06:24;101174.38;;;6.56;100.00
65054;BME280;51639;47.828;35.038;2023-12-28T07:21:26;101182.38;;;6.22;100.00
65054;BME280;51639;47.828;35.038;2023-12-28T07:36:28;101183.88;;;7.39;100.00
65054;BME280;51639;47.828;35.038;2023-12-28T07:51:31;101191.28;;;8.96;100.00
65054;BME280;51639;47.828;35.038;2023-12-28T08:06:33;101186.75;;;9.36;100.00
65054;BME280;51639;47.828;35.038;2023-12-28T08:21:38;101203.44;;;10.73;94.34
65054;BME280;51639;47.828;35.038;2023-12-28T08:36:40;101214.41;;;12.49;74.58
65054;BME280;51639;47.828;35.038;2023-12-28T08:51:43;101203.94;;;13.96;59.29
65054;BME280;51639;47.828;35.038;2023-12-28T09:06:46;101215.84;;;12.57;60.87
65054;BME280;51639;47.828;35.038;2023-12-28T09:21:48;101226.03;;;14.29;59.65
65054;BME280;51639;47.828;35.038;2023-12-28T09:36:50;101198.06;;;16.09;48.00
65054;BME280;51639;47.828;35.038;2023-12-28T09:51:52;101187.06;;;16.41;46.28
65054;BME280;51639;47.828;35.038;2023-12-28T10:06:55;101178.00;;;15.30;47.75
65054;BME280;51639;47.828;35.038;2023-12-28T10:21:57;101175.09;;;15.38;47.26
65054;BME280;51639;47.828;35.038;2023-12-28T10:36:59;101161.88;;;15.52;47.03
65054;BME280;51639;47.828;35.038;2023-12-28T10:52:03;101141.25;;;15.31;46.15
65054;BME280;51639;47.828;35.038;2023-12-28T11:07:09;101143.50;;;15.53;45.29
65054;BME280;51639;47.828;35.038;2023-12-28T11:22:13;101124.75;;;14.99;42.83
65054;BME280;51639;47.828;35.038;2023-12-28T11:37:34;101125.91;;;14.82;46.22
65054;BME280;51639;47.828;35.038;2023-12-28T11:52:36;101155.06;;;13.28;47.89
65054;BME280;51639;47.828;35.038;2023-12-28T12:07:39;101138.19;;;12.05;53.29
65054;BME280;51639;47.828;35.038;2023-12-28T12:22:41;101146.91;;;11.26;61.02
65054;BME280;51639;47.828;35.038;2023-12-28T12:37:43;101150.19;;;10.89;67.26
65054;BME280;51639;47.828;35.038;2023-12-28T12:52:47;101151.91;;;10.48;76.08
65054;BME280;51639;47.828;35.038;2023-12-28T13:07:50;101139.19;;;9.84;87.51
65054;BME280;51639;47.828;35.038;2023-12-28T13:23:16;101152.66;;;9.28;100.00
65054;BME280;51639;47.828;35.038;2023-12-28T13:38:22;101145.69;;;9.19;100.00
65054;BME280;51639;47.828;35.038;2023-12-28T13:53:30;101126.06;;;8.46;100.00
65054;BME280;51639;47.828;35.038;2023-12-28T14:08:34;101124.72;;;8.95;100.00
65054;BME280;51639;47.828;35.038;2023-12-28T14:23:41;101127.59;;;8.44;100.00
65054;BME280;51639;47.828;35.038;2023-12-28T14:38:46;101145.84;;;8.03;100.00
65054;BME280;51639;47.828;35.038;2023-12-28T14:53:54;101160.31;;;7.80;100.00
65054;BME280;51639;47.828;35.038;2023-12-28T15:08:56;101165.13;;;7.57;100.00
65054;BME280;51639;47.828;35.038;2023-12-28T15:23:59;101160.94;;;7.23;100.00
65054;BME280;51639;47.828;35.038;2023-12-28T15:39:03;101153.91;;;7.14;100.00
65054;BME280;51639;47.828;35.038;2023-12-28T15:54:07;101140.66;;;7.02;100.00
65054;BME280;51639;47.828;35.038;2023-12-28T16:09:09;101117.09;;;6.99;100.00
65054;BME280;51639;47.828;35.038;2023-12-28T16:24:12;101126.97;;;6.88;100.00
65054;BME280;51639;47.828;35.038;2023-12-28T16:39:14;101111.13;;;5.97;100.00
65054;BME280;51639;47.828;35.038;2023-12-28T16:54:20;101091.13;;;6.54;100.00
65054;BME280;51639;47.828;35.038;2023-12-28T17:09:23;101072.91;;;6.77;100.00
65054;BME280;51639;47.828;35.038;2023-12-28T17:24:43;101081.03;;;6.81;100.00
65054;BME280;51639;47.828;35.038;2023-12-28T17:39:50;101067.03;;;7.05;100.00
65054;BME280;51639;47.828;35.038;2023-12-28T17:54:52;101080.03;;;6.03;100.00
65054;BME280;51639;47.828;35.038;2023-12-28T18:09:56;101066.56;;;6.03;100.00
65054;BME280;51639;47.828;35.038;2023-12-28T18:24:58;101042.97;;;6.93;100.00
65054;BME280;51639;47.828;35.038;2023-12-28T18:40:01;101036.81;;;6.93;100.00
65054;BME280;51639;47.828;35.038;2023-12-28T18:55:04;101046.03;;;6.55;100.00
65054;BME280;51639;47.828;35.038;2023-12-28T19:10:06;101020.69;;;6.29;100.00
65054;BME280;51639;47.828;35.038;2023-12-28T19:25:09;101023.91;;;6.08;100.00
65054;BME280;51639;47.828;35.038;2023-12-28T19:40:11;101016.28;;;5.88;100.00
65054;BME280;51639;47.828;35.038;2023-12-28T19:55:13;101009.81;;;6.22;100.00
65054;BME280;51639;47.828;35.038;2023-12-28T20:10:22;100991.28;;;6.21;100.00
65054;BME280;51639;47.828;35.038;2023-12-28T20:25:25;100964.78;;;6.26;100.00
65054;BME280;51639;47.828;35.038;2023-12-28T20:40:27;100962.72;;;6.12;100.00
65054;BME280;51639;47.828;35.038;2023-12-28T20:55:29;100946.59;;;6.20;100.00
65054;BME280;51639;47.828;35.038;2023-12-28T21:10:32;100921.00;;;6.36;100.00
65054;BME280;51639;47.828;35.038;2023-12-28T21:25:34;100907.91;;;6.79;100.00
65054;BME280;51639;47.828;35.038;2023-12-28T21:40:37;100877.97;;;6.98;100.00
65054;BME280;51639;47.828;35.038;2023-12-28T21:55:41;100837.63;;;7.19;100.00
65054;BME280;51639;47.828;35.038;2023-12-28T22:10:43;100822.03;;;7.71;100.00
65054;BME280;51639;47.828;35.038;2023-12-28T22:25:45;100798.84;;;7.63;100.00
65054;BME280;51639;47.828;35.038;2023-12-28T22:40:47;100765.25;;;7.61;100.00
65054;BME280;51639;47.828;35.038;2023-12-28T22:55:49;100759.19;;;8.03;100.00
65054;BME280;51639;47.828;35.038;2023-12-28T23:10:51;100760.38;;;8.37;100.00
65054;BME280;51639;47.828;35.038;2023-12-28T23:25:53;100717.06;;;8.16;100.00
65054;BME280;51639;47.828;35.038;2023-12-28T23:40:55;100731.75;;;8.15;100.00
65054;BME280;51639;47.828;35.038;2023-12-28T23:55:57;100696.19;;;8.06;100.00
